createdAt,value
2022-10-05T00:00:18.065Z,5.18
2022-10-05T00:02:46.742Z,6.57
2022-10-05T00:05:26.362Z,6.68
2022-10-05T00:07:57.457Z,6.22
2022-10-05T00:10:25.605Z,7.07
2022-10-05T00:12:55.039Z,7.30
2022-10-05T00:15:23.988Z,5.55
2022-10-05T00:17:51.918Z,5.95
2022-10-05T00:20:23.300Z,6.97
2022-10-05T00:22:57.224Z,8.98
2022-10-05T00:25:25.787Z,5.70
2022-10-05T00:27:57.671Z,6.43
2022-10-05T00:30:27.657Z,5.32
2022-10-05T00:32:59.505Z,6.28
2022-10-05T00:35:29.435Z,5.68
2022-10-05T00:37:57.859Z,6.18
2022-10-05T00:40:45.619Z,6.57
2022-10-05T00:44:02.425Z,6.32
2022-10-05T00:46:42.302Z,6.72
2022-10-05T00:49:22.896Z,8.32
2022-10-05T00:52:04.215Z,6.70
2022-10-05T00:54:40.122Z,8.80
2022-10-05T00:57:27.406Z,8.65
2022-10-05T01:00:17.622Z,6.07
2022-10-05T01:02:57.067Z,9.52
2022-10-05T01:05:41.718Z,8.73
2022-10-05T01:08:21.027Z,8.57
2022-10-05T01:10:55.157Z,6.00
2022-10-05T01:13:29.680Z,6.63
2022-10-05T01:16:08.278Z,5.70
2022-10-05T01:18:44.078Z,9.65
2022-10-05T01:21:18.538Z,9.15
2022-10-05T01:24:22.364Z,7.32
2022-10-05T01:27:09.251Z,6.05
2022-10-05T01:29:44.749Z,8.10
2022-10-05T01:32:24.079Z,7.15
2022-10-05T01:34:57.663Z,7.53
2022-10-05T01:37:29.850Z,12.95
2022-10-05T01:40:07.069Z,7.40
2022-10-05T01:42:47.161Z,9.38
2022-10-05T01:45:26.635Z,6.03
2022-10-05T01:48:04.175Z,11.93
2022-10-05T01:50:42.324Z,8.25
2022-10-05T01:53:20.222Z,6.30
2022-10-05T01:55:57.245Z,7.03
2022-10-05T01:58:34.540Z,7.20
2022-10-05T02:01:09.115Z,7.22
2022-10-05T02:03:39.988Z,6.47
2022-10-05T02:06:13.027Z,8.40
2022-10-05T02:08:44.949Z,6.68
2022-10-05T02:11:15.365Z,7.03
2022-10-05T02:13:47.080Z,6.45
2022-10-05T02:16:22.447Z,7.80
2022-10-05T02:18:53.812Z,6.35
2022-10-05T02:21:24.547Z,7.47
2022-10-05T02:23:56.643Z,7.63
2022-10-05T02:26:26.133Z,6.72
2022-10-05T02:28:57.372Z,6.07
2022-10-05T02:31:30.141Z,6.60
2022-10-05T02:34:26.355Z,9.30
2022-10-05T02:37:11.369Z,7.65
2022-10-05T02:39:50.718Z,7.53
2022-10-05T02:42:25.762Z,6.30
2022-10-05T02:44:59.851Z,8.63
2022-10-05T02:47:36.624Z,6.78
2022-10-05T02:50:10.213Z,7.70
2022-10-05T02:52:45.868Z,6.47
2022-10-05T02:55:19.273Z,9.05
2022-10-05T02:57:59.388Z,8.32
2022-10-05T03:00:30.843Z,6.70
2022-10-05T03:03:05.664Z,7.70
2022-10-05T03:05:39.944Z,7.03
2022-10-05T03:08:16.403Z,7.18
2022-10-05T03:10:53.886Z,7.57
2022-10-05T03:13:29.998Z,7.82
2022-10-05T03:16:16.961Z,7.20
2022-10-05T03:18:59.692Z,9.20
2022-10-05T03:21:43.859Z,7.18
2022-10-05T03:24:27.420Z,6.68
2022-10-05T03:27:04.469Z,10.88
2022-10-05T03:29:39.752Z,8.18
2022-10-05T03:32:15.899Z,8.10
2022-10-05T03:34:49.925Z,7.60
2022-10-05T03:37:25.234Z,7.88
2022-10-05T03:39:59.139Z,7.05
2022-10-05T03:42:34.152Z,7.45
2022-10-05T03:45:07.544Z,9.25
2022-10-05T03:47:43.048Z,11.20
2022-10-05T03:50:24.519Z,11.75
2022-10-05T03:52:57.712Z,11.05
2022-10-05T03:55:32.522Z,7.13
2022-10-05T03:58:07.376Z,8.35
2022-10-05T04:00:38.086Z,8.77
2022-10-05T04:03:14.092Z,8.65
2022-10-05T04:05:48.664Z,7.70
2022-10-05T04:08:24.084Z,8.40
2022-10-05T04:10:53.960Z,7.43
2022-10-05T04:13:26.578Z,8.88
2022-10-05T04:15:59.912Z,8.00
2022-10-05T04:18:32.123Z,7.97
2022-10-05T04:21:07.295Z,7.47
2022-10-05T04:23:45.036Z,8.30
2022-10-05T04:26:19.705Z,9.75
2022-10-05T04:28:54.947Z,7.65
2022-10-05T04:31:38.268Z,7.40
2022-10-05T04:34:15.698Z,10.13
2022-10-05T04:36:53.728Z,8.30
2022-10-05T04:39:32.110Z,11.50
2022-10-05T04:42:09.455Z,7.32
2022-10-05T04:45:03.084Z,8.77
2022-10-05T04:47:55.928Z,9.55
2022-10-05T04:50:35.142Z,8.63
2022-10-05T04:53:16.226Z,10.88
2022-10-05T04:55:52.874Z,8.48
2022-10-05T04:58:32.315Z,9.75
2022-10-05T05:01:13.271Z,11.25
2022-10-05T05:03:54.154Z,9.77
2022-10-05T05:06:35.503Z,9.63
2022-10-05T05:09:24.341Z,9.38
2022-10-05T05:12:04.821Z,9.88
2022-10-05T05:14:56.863Z,9.07
2022-10-05T05:17:42.390Z,9.50
2022-10-05T05:20:23.314Z,9.63
2022-10-05T05:23:03.563Z,9.38
2022-10-05T05:25:40.500Z,9.25
2022-10-05T05:28:20.264Z,10.45
2022-10-05T05:30:53.713Z,10.40
2022-10-05T05:33:24.192Z,10.25
2022-10-05T05:36:24.300Z,10.75
2022-10-05T05:39:06.811Z,10.45
2022-10-05T05:41:40.425Z,10.43
2022-10-05T05:44:21.200Z,13.65
2022-10-05T05:47:10.589Z,11.43
2022-10-05T05:49:54.668Z,10.05
2022-10-05T05:52:29.066Z,10.45
2022-10-05T05:55:00.962Z,10.23
2022-10-05T05:57:36.049Z,9.95
2022-10-05T06:00:07.756Z,10.10
2022-10-05T06:02:41.802Z,10.27
2022-10-05T06:05:25.257Z,13.50
2022-10-05T06:07:54.974Z,13.30
2022-10-05T06:10:31.911Z,10.57
2022-10-05T06:13:07.456Z,11.52
2022-10-05T06:15:39.248Z,10.85
2022-10-05T06:18:12.168Z,10.77
2022-10-05T06:20:44.514Z,11.95
2022-10-05T06:23:17.941Z,9.80
2022-10-05T06:25:56.797Z,10.70
2022-10-05T06:28:27.808Z,11.63
2022-10-05T06:31:07.717Z,11.30
2022-10-05T06:33:46.868Z,13.95
2022-10-05T06:36:24.659Z,11.65
2022-10-05T06:39:18.593Z,10.32
2022-10-05T06:42:01.911Z,10.10
2022-10-05T06:44:38.691Z,17.33
2022-10-05T06:47:16.578Z,11.15
2022-10-05T06:49:51.938Z,10.70
2022-10-05T06:52:27.188Z,16.60
2022-10-05T06:55:14.416Z,14.52
2022-10-05T06:57:54.672Z,12.95
2022-10-05T07:00:26.315Z,15.88
2022-10-05T07:03:01.136Z,10.68
2022-10-05T07:05:53.549Z,11.65
2022-10-05T07:08:31.706Z,10.55
2022-10-05T07:11:16.562Z,11.50
2022-10-05T07:14:00.338Z,11.48
2022-10-05T07:16:41.789Z,10.63
2022-10-05T07:19:26.798Z,10.88
2022-10-05T07:22:09.051Z,10.57
2022-10-05T07:24:42.777Z,10.45
2022-10-05T07:27:17.393Z,11.27
2022-10-05T07:29:53.816Z,10.43
2022-10-05T07:32:37.536Z,11.13
2022-10-05T07:35:33.084Z,9.82
2022-10-05T07:38:05.634Z,8.95
2022-10-05T07:40:39.298Z,9.45
2022-10-05T07:43:22.604Z,12.18
2022-10-05T07:45:58.243Z,8.63
2022-10-05T07:48:33.729Z,9.60
2022-10-05T07:51:07.603Z,8.40
2022-10-05T07:53:39.994Z,8.77
2022-10-05T07:56:14.713Z,10.05
2022-10-05T07:58:47.890Z,8.68
2022-10-05T08:01:23.383Z,9.13
2022-10-05T08:03:57.600Z,8.35
2022-10-05T08:06:43.862Z,10.07
2022-10-05T08:09:23.589Z,8.85
2022-10-05T08:11:58.661Z,8.60
2022-10-05T08:14:33.672Z,10.05
2022-10-05T08:17:07.128Z,7.43
2022-10-05T08:19:44.106Z,8.15
2022-10-05T08:22:19.761Z,10.23
2022-10-05T08:24:55.680Z,8.10
2022-10-05T08:27:29.879Z,10.43
2022-10-05T08:30:01.664Z,11.18
2022-10-05T08:32:34.914Z,8.23
2022-10-05T08:35:17.876Z,8.35
2022-10-05T08:37:46.918Z,7.55
2022-10-05T08:40:45.375Z,10.90
2022-10-05T08:43:35.318Z,6.88
2022-10-05T08:46:31.395Z,7.63
2022-10-05T08:49:13.971Z,7.85
2022-10-05T08:52:13.140Z,7.40
2022-10-05T08:55:12.905Z,6.55
2022-10-05T08:58:11.925Z,7.30
2022-10-05T09:00:50.145Z,7.60
2022-10-05T09:12:08.265Z,7.25
2022-10-05T09:15:01.310Z,7.30
2022-10-05T09:20:32.255Z,6.47
2022-10-05T09:25:54.260Z,8.82
2022-10-05T09:28:31.041Z,7.55
2022-10-05T09:31:38.931Z,6.60
2022-10-05T09:34:40.271Z,7.13
2022-10-05T09:37:47.140Z,6.47
2022-10-05T09:40:44.490Z,6.95
2022-10-05T09:43:37.563Z,6.63
2022-10-05T09:50:23.288Z,5.80
2022-10-05T09:53:10.881Z,5.55
2022-10-05T09:56:09.457Z,5.78
2022-10-05T10:01:34.883Z,4.90
2022-10-05T10:15:34.701Z,4.50
2022-10-05T10:18:18.451Z,4.88
2022-10-05T10:21:03.430Z,4.40
2022-10-05T10:23:47.881Z,3.90
2022-10-05T10:26:50.416Z,3.55
2022-10-05T10:29:46.065Z,3.55
2022-10-05T10:32:56.991Z,3.13
2022-10-05T10:35:33.731Z,3.25
2022-10-05T10:41:46.630Z,3.15
2022-10-05T10:44:52.747Z,2.85
2022-10-05T10:47:47.186Z,2.97
2022-10-05T10:51:01.573Z,2.92
2022-10-05T10:53:52.785Z,3.40
2022-10-05T10:56:23.080Z,2.65
2022-10-05T10:59:04.431Z,3.28
2022-10-05T11:01:36.601Z,2.60
2022-10-05T11:04:37.129Z,3.15
2022-10-05T11:07:29.840Z,3.28
2022-10-05T11:10:26.470Z,5.53
2022-10-05T11:13:29.692Z,2.70
2022-10-05T11:16:30.962Z,3.15
2022-10-05T11:19:40.044Z,3.28
2022-10-05T11:22:26.411Z,3.60
2022-10-05T11:25:12.123Z,2.40
2022-10-05T11:28:00.892Z,3.70
2022-10-05T11:30:55.884Z,2.83
2022-10-05T11:33:59.564Z,2.95
2022-10-05T11:37:03.557Z,4.35
2022-10-05T11:39:42.170Z,2.70
2022-10-05T11:42:34.571Z,3.38
2022-10-05T11:45:22.705Z,3.35
2022-10-05T11:48:22.833Z,2.75
2022-10-05T11:51:09.632Z,2.83
2022-10-05T11:53:42.200Z,2.45
2022-10-05T11:56:20.083Z,2.83
2022-10-05T11:58:54.750Z,2.90
2022-10-05T12:01:29.500Z,2.63
2022-10-05T12:04:07.437Z,3.00
2022-10-05T12:06:54.884Z,2.40
2022-10-05T12:10:05.655Z,2.38
2022-10-05T12:12:39.368Z,3.85
2022-10-05T12:15:20.236Z,2.67
2022-10-05T12:17:53.499Z,2.83
2022-10-05T12:20:26.966Z,2.70
2022-10-05T12:23:03.437Z,6.68
2022-10-05T12:25:37.707Z,2.60
2022-10-05T12:28:11.921Z,2.75
2022-10-05T12:31:02.215Z,2.60
2022-10-05T12:33:41.487Z,2.40
2022-10-05T12:36:14.311Z,3.05
2022-10-05T12:38:46.950Z,2.83
2022-10-05T12:41:23.283Z,2.78
2022-10-05T12:44:05.889Z,2.72
2022-10-05T12:46:43.482Z,2.95
2022-10-05T12:49:35.234Z,5.97
2022-10-05T12:52:06.519Z,2.38
2022-10-05T12:54:43.317Z,2.55
2022-10-05T12:57:20.633Z,1.80
2022-10-05T12:59:57.230Z,2.55
2022-10-05T13:02:39.075Z,2.35
2022-10-05T13:05:22.368Z,3.97
2022-10-05T13:08:06.763Z,3.17
2022-10-05T13:10:39.106Z,2.45
2022-10-05T13:13:30.978Z,2.45
2022-10-05T13:16:08.256Z,2.13
2022-10-05T13:18:49.897Z,2.65
2022-10-05T13:21:21.882Z,2.35
2022-10-05T13:23:57.923Z,2.97
2022-10-05T13:26:32.841Z,2.30
2022-10-05T13:29:09.435Z,2.40
2022-10-05T13:31:44.554Z,2.53
2022-10-05T13:34:27.921Z,2.10
2022-10-05T13:37:06.885Z,3.90
2022-10-05T13:39:53.203Z,2.63
2022-10-05T13:42:30.763Z,2.20
2022-10-05T13:45:05.324Z,2.45
2022-10-05T13:47:38.809Z,3.95
2022-10-05T13:50:15.292Z,2.72
2022-10-05T13:52:53.216Z,2.10
2022-10-05T13:55:34.486Z,2.60
2022-10-05T13:58:08.411Z,2.42
2022-10-05T14:00:47.617Z,2.80
2022-10-05T14:03:27.818Z,3.55
2022-10-05T14:05:59.430Z,2.53
2022-10-05T14:08:30.933Z,4.75
2022-10-05T14:10:58.953Z,3.35
2022-10-05T14:13:33.035Z,2.75
2022-10-05T14:16:21.926Z,3.67
2022-10-05T14:18:56.006Z,2.80
2022-10-05T14:21:26.138Z,2.60
2022-10-05T14:23:57.212Z,2.75
2022-10-05T14:26:36.272Z,3.03
2022-10-05T14:29:18.894Z,2.75
2022-10-05T14:31:56.050Z,6.10
2022-10-05T14:34:29.863Z,2.60
2022-10-05T14:36:59.873Z,2.50
2022-10-05T14:39:29.166Z,2.30
2022-10-05T14:41:57.463Z,2.00
2022-10-05T14:44:34.220Z,2.53
2022-10-05T14:47:23.621Z,2.17
2022-10-05T14:50:13.898Z,3.75
2022-10-05T14:52:51.517Z,2.20
2022-10-05T14:55:31.115Z,2.83
2022-10-05T14:58:10.645Z,1.92
2022-10-05T15:00:48.904Z,2.17
2022-10-05T15:03:31.344Z,3.85
2022-10-05T15:06:02.113Z,2.53
2022-10-05T15:08:53.480Z,2.33
2022-10-05T15:11:32.920Z,2.15
2022-10-05T15:14:01.706Z,2.38
2022-10-05T15:16:35.251Z,3.17
2022-10-05T15:19:16.079Z,1.90
2022-10-05T15:22:10.727Z,2.53
2022-10-05T15:24:45.556Z,3.22
2022-10-05T15:27:23.803Z,2.67
2022-10-05T15:30:05.565Z,2.13
2022-10-05T15:32:49.779Z,2.20
2022-10-05T15:35:48.050Z,1.90
2022-10-05T15:38:25.764Z,1.90
2022-10-05T15:41:05.393Z,2.45
2022-10-05T15:43:46.931Z,2.40
2022-10-05T15:46:19.382Z,4.75
2022-10-05T15:48:54.905Z,2.22
2022-10-05T15:51:36.393Z,2.33
2022-10-05T15:54:31.232Z,2.30
2022-10-05T15:57:07.745Z,3.10
2022-10-05T15:59:43.242Z,2.47
2022-10-05T16:02:21.295Z,2.13
2022-10-05T16:04:59.972Z,4.60
2022-10-05T16:07:59.883Z,1.80
2022-10-05T16:10:28.255Z,2.80
2022-10-05T16:13:13.885Z,2.28
2022-10-05T16:15:48.615Z,1.90
2022-10-05T16:18:34.048Z,3.13
2022-10-05T16:21:18.710Z,3.00
2022-10-05T16:24:05.311Z,1.80
2022-10-05T16:26:50.176Z,2.72
2022-10-05T16:29:25.785Z,2.75
2022-10-05T16:32:01.169Z,2.63
2022-10-05T16:34:41.192Z,1.92
2022-10-05T16:37:14.814Z,1.77
2022-10-05T16:39:53.621Z,2.33
2022-10-05T16:42:41.905Z,2.33
2022-10-05T16:45:21.955Z,7.40
2022-10-05T16:48:00.822Z,2.03
2022-10-05T16:50:35.756Z,2.08
2022-10-05T16:53:10.779Z,3.63
2022-10-05T16:55:45.002Z,2.30
2022-10-05T16:58:17.807Z,3.38
2022-10-05T17:01:05.943Z,2.63
2022-10-05T17:03:46.697Z,2.58
2022-10-05T17:06:41.511Z,4.65
2022-10-05T17:09:30.698Z,5.07
2022-10-05T17:12:17.092Z,2.80
2022-10-05T17:14:56.266Z,2.55
2022-10-05T17:17:47.383Z,2.72
2022-10-05T17:20:45.416Z,2.40
2022-10-05T17:23:30.766Z,2.45
2022-10-05T17:26:09.322Z,2.85
2022-10-05T17:28:49.854Z,6.88
2022-10-05T17:31:19.397Z,4.78
2022-10-05T17:34:13.541Z,3.40
2022-10-05T17:36:48.506Z,2.95
2022-10-05T17:39:18.151Z,3.80
2022-10-05T17:41:46.727Z,2.70
2022-10-05T17:44:26.493Z,2.92
2022-10-05T17:46:59.672Z,4.32
2022-10-05T17:49:46.266Z,2.22
2022-10-05T17:52:43.921Z,3.25
2022-10-05T17:55:38.388Z,2.85
2022-10-05T17:58:40.871Z,2.70
2022-10-05T18:01:19.984Z,2.80
2022-10-05T18:03:51.385Z,3.15
2022-10-05T18:06:35.434Z,3.03
2022-10-05T18:09:32.981Z,3.20
2022-10-05T18:12:45.350Z,2.50
2022-10-05T18:15:46.184Z,2.20
2022-10-05T18:18:35.864Z,3.80
2022-10-05T18:21:35.638Z,3.22
2022-10-05T18:24:29.834Z,3.08
2022-10-05T18:27:09.181Z,2.38
2022-10-05T18:30:05.701Z,2.67
2022-10-05T18:33:09.459Z,5.32
2022-10-05T18:35:50.459Z,2.60
2022-10-05T18:38:35.108Z,2.90
2022-10-05T18:41:07.219Z,2.20
2022-10-05T18:43:40.905Z,2.40
2022-10-05T18:46:25.140Z,2.60
2022-10-05T18:49:07.994Z,2.33
2022-10-05T18:51:51.645Z,3.58
2022-10-05T18:54:34.868Z,2.47
2022-10-05T18:57:36.829Z,3.45
2022-10-05T19:00:12.047Z,3.58
2022-10-05T19:02:44.832Z,2.55
2022-10-05T19:05:46.234Z,2.28
2022-10-05T19:08:21.830Z,2.80
2022-10-05T19:10:55.126Z,2.17
2022-10-05T19:13:38.704Z,1.80
2022-10-05T19:16:27.123Z,2.55
2022-10-05T19:19:23.983Z,2.63
2022-10-05T19:22:03.882Z,5.30
2022-10-05T19:24:48.755Z,2.65
2022-10-05T19:27:25.621Z,1.92
2022-10-05T19:30:15.596Z,3.05
2022-10-05T19:33:14.740Z,4.72
2022-10-05T19:35:58.484Z,3.72
2022-10-05T19:38:32.897Z,3.05
2022-10-05T19:41:14.649Z,2.20
2022-10-05T19:44:02.416Z,1.63
2022-10-05T19:46:43.562Z,3.45
2022-10-05T19:49:12.220Z,2.92
2022-10-05T19:51:50.473Z,1.85
2022-10-05T19:54:26.778Z,7.25
2022-10-05T19:56:58.345Z,2.13
2022-10-05T19:59:31.358Z,2.60
2022-10-05T20:02:00.660Z,1.70
2022-10-05T20:04:36.825Z,1.90
2022-10-05T20:07:06.236Z,2.85
2022-10-05T20:09:53.121Z,2.58
2022-10-05T20:12:23.678Z,4.15
2022-10-05T20:15:26.811Z,2.40
2022-10-05T20:18:12.589Z,1.90
2022-10-05T20:20:45.758Z,2.15
2022-10-05T20:23:21.667Z,2.70
2022-10-05T20:26:10.716Z,2.25
2022-10-05T20:28:40.760Z,2.40
2022-10-05T20:31:09.187Z,7.80
2022-10-05T20:33:37.220Z,2.35
2022-10-05T20:36:06.106Z,1.92
2022-10-05T20:38:40.627Z,1.73
2022-10-05T20:41:09.443Z,1.80
2022-10-05T20:43:39.286Z,1.65
2022-10-05T20:46:07.527Z,1.65
2022-10-05T20:48:36.126Z,1.42
2022-10-05T20:51:04.061Z,2.20
2022-10-05T20:53:32.032Z,2.03
2022-10-05T20:56:02.934Z,1.50
2022-10-05T20:58:31.258Z,1.92
2022-10-05T21:01:19.905Z,1.65
2022-10-05T21:03:48.326Z,6.75
2022-10-05T21:06:17.845Z,1.40
2022-10-05T21:08:47.065Z,1.77
2022-10-05T21:11:15.367Z,1.80
2022-10-05T21:13:44.702Z,1.88
2022-10-05T21:16:15.905Z,2.78
2022-10-05T21:18:46.790Z,2.30
2022-10-05T21:21:15.193Z,1.88
2022-10-05T21:23:43.246Z,2.10
2022-10-05T21:26:12.333Z,2.08
2022-10-05T21:28:40.412Z,4.07
2022-10-05T21:31:08.696Z,5.97
2022-10-05T21:33:38.052Z,2.05
2022-10-05T21:36:06.273Z,1.80
2022-10-05T21:38:34.757Z,1.85
2022-10-05T21:41:02.748Z,4.80
2022-10-05T21:43:31.055Z,2.15
2022-10-05T21:45:59.534Z,2.25
2022-10-05T21:48:27.817Z,1.70
2022-10-05T21:50:58.316Z,3.58
2022-10-05T21:53:29.722Z,2.20
2022-10-05T21:56:02.705Z,5.13
2022-10-05T21:58:31.857Z,3.75
2022-10-05T22:00:59.892Z,1.17
2022-10-05T22:03:28.164Z,0.80
2022-10-05T22:05:57.586Z,0.70
2022-10-05T22:08:27.643Z,0.60
2022-10-05T22:10:58.779Z,0.60
2022-10-05T22:13:28.079Z,0.40
2022-10-05T22:15:57.693Z,1.40
2022-10-05T22:18:27.700Z,0.57
2022-10-05T22:20:57.268Z,0.55
2022-10-05T22:23:25.316Z,0.55
2022-10-05T22:25:54.638Z,0.60
2022-10-05T22:28:22.685Z,0.60
2022-10-05T22:30:50.713Z,0.88
2022-10-05T22:33:18.931Z,0.80
2022-10-05T22:35:47.140Z,0.70
2022-10-05T22:38:16.675Z,1.10
2022-10-05T22:40:44.830Z,3.40
2022-10-05T22:43:13.505Z,0.60
2022-10-05T22:45:41.707Z,0.80
2022-10-05T22:48:10.114Z,0.70
2022-10-05T22:50:38.028Z,0.65
2022-10-05T22:53:05.995Z,0.73
2022-10-05T22:55:35.596Z,1.00
2022-10-05T22:58:03.545Z,1.15
2022-10-05T23:00:56.282Z,1.42
2022-10-05T23:03:19.606Z,1.00
2022-10-05T23:05:47.775Z,1.00
2022-10-05T23:08:16.084Z,0.85
2022-10-05T23:10:45.840Z,2.55
2022-10-05T23:13:13.743Z,0.70
2022-10-05T23:15:42.351Z,0.60
2022-10-05T23:18:10.402Z,0.90
2022-10-05T23:20:40.130Z,0.43
2022-10-05T23:23:08.121Z,0.50
2022-10-05T23:25:36.635Z,0.40
2022-10-05T23:28:05.991Z,0.32
2022-10-05T23:30:34.722Z,0.70
2022-10-05T23:33:02.761Z,0.45
2022-10-05T23:35:31.033Z,0.40
2022-10-05T23:37:59.006Z,2.30
2022-10-05T23:40:27.113Z,0.50
2022-10-05T23:42:55.114Z,0.50
2022-10-05T23:45:24.449Z,0.52
2022-10-05T23:47:52.522Z,0.40
2022-10-05T23:50:21.446Z,0.50
2022-10-05T23:52:49.420Z,0.63
2022-10-05T23:55:17.673Z,1.50
2022-10-05T23:57:45.668Z,0.80
